sensor_id;sensor_type;location;lat;lon;timestamp;temperature;humidity
12977;DHT22;6553;48.412;9.514;2023-05-27T00:00:04;19.90;66.80
12977;DHT22;6553;48.412;9.514;2023-05-27T00:02:32;19.90;67.00
12977;DHT22;6553;48.412;9.514;2023-05-27T00:04:58;19.90;67.10
12977;DHT22;6553;48.412;9.514;2023-05-27T00:07:24;19.90;67.60
12977;DHT22;6553;48.412;9.514;2023-05-27T00:09:50;19.90;66.90
12977;DHT22;6553;48.412;9.514;2023-05-27T00:12:16;19.90;66.80
12977;DHT22;6553;48.412;9.514;2023-05-27T00:14:43;19.90;66.80
12977;DHT22;6553;48.412;9.514;2023-05-27T00:17:09;19.90;66.80
12977;DHT22;6553;48.412;9.514;2023-05-27T00:19:38;19.90;66.80
12977;DHT22;6553;48.412;9.514;2023-05-27T00:22:05;19.90;66.80
12977;DHT22;6553;48.412;9.514;2023-05-27T00:24:33;19.90;66.80
12977;DHT22;6553;48.412;9.514;2023-05-27T00:27:01;19.90;66.80
12977;DHT22;6553;48.412;9.514;2023-05-27T00:29:28;19.90;66.90
12977;DHT22;6553;48.412;9.514;2023-05-27T00:31:54;19.90;66.80
12977;DHT22;6553;48.412;9.514;2023-05-27T00:34:19;19.90;66.80
12977;DHT22;6553;48.412;9.514;2023-05-27T00:36:45;19.90;66.80
12977;DHT22;6553;48.412;9.514;2023-05-27T00:39:11;19.90;66.80
12977;DHT22;6553;48.412;9.514;2023-05-27T00:41:37;19.90;66.80
12977;DHT22;6553;48.412;9.514;2023-05-27T00:44:07;19.90;66.80
12977;DHT22;6553;48.412;9.514;2023-05-27T00:46:33;19.90;66.80
12977;DHT22;6553;48.412;9.514;2023-05-27T00:48:59;19.90;66.80
12977;DHT22;6553;48.412;9.514;2023-05-27T00:51:25;19.90;66.80
12977;DHT22;6553;48.412;9.514;2023-05-27T00:53:50;19.90;66.80
12977;DHT22;6553;48.412;9.514;2023-05-27T00:56:16;19.90;66.80
12977;DHT22;6553;48.412;9.514;2023-05-27T00:58:43;19.90;66.80
12977;DHT22;6553;48.412;9.514;2023-05-27T01:01:10;19.90;66.80
12977;DHT22;6553;48.412;9.514;2023-05-27T01:03:37;19.90;66.80
12977;DHT22;6553;48.412;9.514;2023-05-27T01:09:11;19.90;66.80
12977;DHT22;6553;48.412;9.514;2023-05-27T01:11:58;19.90;66.80
12977;DHT22;6553;48.412;9.514;2023-05-27T01:14:30;19.80;66.70
12977;DHT22;6553;48.412;9.514;2023-05-27T01:16:59;19.80;66.70
12977;DHT22;6553;48.412;9.514;2023-05-27T01:19:34;19.80;66.70
12977;DHT22;6553;48.412;9.514;2023-05-27T01:22:02;19.90;66.80
12977;DHT22;6553;48.412;9.514;2023-05-27T01:24:31;19.80;66.70
12977;DHT22;6553;48.412;9.514;2023-05-27T01:26:57;19.90;66.80
12977;DHT22;6553;48.412;9.514;2023-05-27T01:29:23;19.80;66.70
12977;DHT22;6553;48.412;9.514;2023-05-27T01:34:53;19.80;66.70
12977;DHT22;6553;48.412;9.514;2023-05-27T01:37:21;19.80;66.70
12977;DHT22;6553;48.412;9.514;2023-05-27T01:39:52;19.90;66.80
12977;DHT22;6553;48.412;9.514;2023-05-27T01:42:19;19.80;66.70
12977;DHT22;6553;48.412;9.514;2023-05-27T01:44:46;19.80;66.70
12977;DHT22;6553;48.412;9.514;2023-05-27T01:47:12;19.80;66.70
12977;DHT22;6553;48.412;9.514;2023-05-27T01:49:38;19.80;66.70
12977;DHT22;6553;48.412;9.514;2023-05-27T01:52:04;19.80;66.60
12977;DHT22;6553;48.412;9.514;2023-05-27T01:54:30;19.80;66.60
12977;DHT22;6553;48.412;9.514;2023-05-27T01:56:56;19.80;67.50
12977;DHT22;6553;48.412;9.514;2023-05-27T01:59:22;19.80;66.40
12977;DHT22;6553;48.412;9.514;2023-05-27T02:01:48;19.80;66.60
12977;DHT22;6553;48.412;9.514;2023-05-27T02:04:14;19.80;66.50
12977;DHT22;6553;48.412;9.514;2023-05-27T02:06:39;19.80;66.60
12977;DHT22;6553;48.412;9.514;2023-05-27T02:09:06;19.80;66.40
12977;DHT22;6553;48.412;9.514;2023-05-27T02:11:32;19.80;66.40
12977;DHT22;6553;48.412;9.514;2023-05-27T02:13:57;19.80;66.40
12977;DHT22;6553;48.412;9.514;2023-05-27T02:16:25;19.80;66.30
12977;DHT22;6553;48.412;9.514;2023-05-27T02:18:51;19.80;66.40
12977;DHT22;6553;48.412;9.514;2023-05-27T02:21:17;19.80;66.40
12977;DHT22;6553;48.412;9.514;2023-05-27T02:23:43;19.80;66.40
12977;DHT22;6553;48.412;9.514;2023-05-27T02:26:09;19.80;66.40
12977;DHT22;6553;48.412;9.514;2023-05-27T02:28:35;19.80;66.30
12977;DHT22;6553;48.412;9.514;2023-05-27T02:31:01;19.80;66.40
12977;DHT22;6553;48.412;9.514;2023-05-27T02:33:26;19.80;66.30
12977;DHT22;6553;48.412;9.514;2023-05-27T02:35:52;19.80;66.20
12977;DHT22;6553;48.412;9.514;2023-05-27T02:38:18;19.80;66.50
12977;DHT22;6553;48.412;9.514;2023-05-27T02:40:44;19.80;66.30
12977;DHT22;6553;48.412;9.514;2023-05-27T02:43:10;19.80;66.30
12977;DHT22;6553;48.412;9.514;2023-05-27T02:45:36;19.80;66.20
12977;DHT22;6553;48.412;9.514;2023-05-27T02:48:03;19.80;66.30
12977;DHT22;6553;48.412;9.514;2023-05-27T02:50:29;19.80;66.20
12977;DHT22;6553;48.412;9.514;2023-05-27T02:52:55;19.80;67.00
12977;DHT22;6553;48.412;9.514;2023-05-27T02:55:21;19.80;66.30
12977;DHT22;6553;48.412;9.514;2023-05-27T02:57:47;19.80;66.20
12977;DHT22;6553;48.412;9.514;2023-05-27T03:00:13;19.80;66.20
12977;DHT22;6553;48.412;9.514;2023-05-27T03:02:40;19.80;66.10
12977;DHT22;6553;48.412;9.514;2023-05-27T03:05:06;19.80;66.10
12977;DHT22;6553;48.412;9.514;2023-05-27T03:07:32;19.80;66.10
12977;DHT22;6553;48.412;9.514;2023-05-27T03:10:00;19.80;66.00
12977;DHT22;6553;48.412;9.514;2023-05-27T03:12:26;19.70;66.00
12977;DHT22;6553;48.412;9.514;2023-05-27T03:14:52;19.80;66.00
12977;DHT22;6553;48.412;9.514;2023-05-27T03:17:19;19.80;66.00
12977;DHT22;6553;48.412;9.514;2023-05-27T03:19:46;19.80;66.00
12977;DHT22;6553;48.412;9.514;2023-05-27T03:22:12;19.80;66.00
12977;DHT22;6553;48.412;9.514;2023-05-27T03:24:39;19.80;66.00
12977;DHT22;6553;48.412;9.514;2023-05-27T03:27:06;19.80;66.10
12977;DHT22;6553;48.412;9.514;2023-05-27T03:29:34;19.80;66.00
12977;DHT22;6553;48.412;9.514;2023-05-27T03:32:01;19.70;66.00
12977;DHT22;6553;48.412;9.514;2023-05-27T03:34:27;19.70;66.10
12977;DHT22;6553;48.412;9.514;2023-05-27T03:36:53;19.80;66.10
12977;DHT22;6553;48.412;9.514;2023-05-27T03:39:24;19.70;66.00
12977;DHT22;6553;48.412;9.514;2023-05-27T03:41:55;19.80;66.00
12977;DHT22;6553;48.412;9.514;2023-05-27T03:44:21;19.70;65.90
12977;DHT22;6553;48.412;9.514;2023-05-27T03:46:47;19.70;66.00
12977;DHT22;6553;48.412;9.514;2023-05-27T03:49:13;19.70;66.00
12977;DHT22;6553;48.412;9.514;2023-05-27T03:51:39;19.70;65.90
12977;DHT22;6553;48.412;9.514;2023-05-27T03:54:05;19.70;65.90
12977;DHT22;6553;48.412;9.514;2023-05-27T03:56:31;19.70;66.00
12977;DHT22;6553;48.412;9.514;2023-05-27T03:58:57;19.70;65.90
12977;DHT22;6553;48.412;9.514;2023-05-27T04:01:23;19.70;65.90
12977;DHT22;6553;48.412;9.514;2023-05-27T04:03:49;19.70;65.90
12977;DHT22;6553;48.412;9.514;2023-05-27T04:06:15;19.70;65.80
12977;DHT22;6553;48.412;9.514;2023-05-27T04:08:41;19.70;65.80
12977;DHT22;6553;48.412;9.514;2023-05-27T04:11:10;19.70;65.80
12977;DHT22;6553;48.412;9.514;2023-05-27T04:13:40;19.70;65.80
12977;DHT22;6553;48.412;9.514;2023-05-27T04:16:07;19.70;65.90
12977;DHT22;6553;48.412;9.514;2023-05-27T04:18:33;19.70;65.80
12977;DHT22;6553;48.412;9.514;2023-05-27T04:21:02;19.70;65.90
12977;DHT22;6553;48.412;9.514;2023-05-27T04:23:28;19.70;65.80
12977;DHT22;6553;48.412;9.514;2023-05-27T04:25:54;19.70;65.90
12977;DHT22;6553;48.412;9.514;2023-05-27T04:28:23;19.70;65.80
12977;DHT22;6553;48.412;9.514;2023-05-27T04:30:51;19.70;65.80
12977;DHT22;6553;48.412;9.514;2023-05-27T04:33:32;19.70;65.90
12977;DHT22;6553;48.412;9.514;2023-05-27T04:35:58;19.70;65.90
12977;DHT22;6553;48.412;9.514;2023-05-27T04:38:27;19.70;65.80
12977;DHT22;6553;48.412;9.514;2023-05-27T04:41:01;19.70;65.80
12977;DHT22;6553;48.412;9.514;2023-05-27T04:43:46;19.70;65.80
12977;DHT22;6553;48.412;9.514;2023-05-27T04:46:16;19.70;65.80
12977;DHT22;6553;48.412;9.514;2023-05-27T04:48:42;19.70;65.80
12977;DHT22;6553;48.412;9.514;2023-05-27T04:51:10;19.70;65.80
12977;DHT22;6553;48.412;9.514;2023-05-27T04:53:36;19.70;65.80
12977;DHT22;6553;48.412;9.514;2023-05-27T04:56:02;19.70;65.80
12977;DHT22;6553;48.412;9.514;2023-05-27T04:58:29;19.70;65.80
12977;DHT22;6553;48.412;9.514;2023-05-27T05:00:55;19.70;65.70
12977;DHT22;6553;48.412;9.514;2023-05-27T05:03:24;19.70;65.80
12977;DHT22;6553;48.412;9.514;2023-05-27T05:06:03;19.70;65.80
12977;DHT22;6553;48.412;9.514;2023-05-27T05:08:31;19.70;65.80
12977;DHT22;6553;48.412;9.514;2023-05-27T05:10:57;19.70;65.80
12977;DHT22;6553;48.412;9.514;2023-05-27T05:13:24;19.70;65.80
12977;DHT22;6553;48.412;9.514;2023-05-27T05:15:54;19.70;65.80
12977;DHT22;6553;48.412;9.514;2023-05-27T05:18:21;19.70;65.80
12977;DHT22;6553;48.412;9.514;2023-05-27T05:20:47;19.70;65.70
12977;DHT22;6553;48.412;9.514;2023-05-27T05:23:17;19.70;65.60
12977;DHT22;6553;48.412;9.514;2023-05-27T05:25:44;19.60;65.60
12977;DHT22;6553;48.412;9.514;2023-05-27T05:28:10;19.70;65.70
12977;DHT22;6553;48.412;9.514;2023-05-27T05:30:37;19.60;65.60
12977;DHT22;6553;48.412;9.514;2023-05-27T05:33:05;19.70;65.70
12977;DHT22;6553;48.412;9.514;2023-05-27T05:35:32;19.70;65.70
12977;DHT22;6553;48.412;9.514;2023-05-27T05:38:13;19.60;65.60
12977;DHT22;6553;48.412;9.514;2023-05-27T05:40:38;19.70;65.80
12977;DHT22;6553;48.412;9.514;2023-05-27T05:43:13;19.60;65.60
12977;DHT22;6553;48.412;9.514;2023-05-27T05:45:39;19.60;65.60
12977;DHT22;6553;48.412;9.514;2023-05-27T05:48:05;19.60;65.60
12977;DHT22;6553;48.412;9.514;2023-05-27T05:50:31;19.60;65.60
12977;DHT22;6553;48.412;9.514;2023-05-27T05:52:58;19.60;65.60
12977;DHT22;6553;48.412;9.514;2023-05-27T05:55:24;19.60;65.60
12977;DHT22;6553;48.412;9.514;2023-05-27T05:57:49;19.60;65.60
12977;DHT22;6553;48.412;9.514;2023-05-27T06:00:16;19.60;65.60
12977;DHT22;6553;48.412;9.514;2023-05-27T06:02:45;19.60;65.50
12977;DHT22;6553;48.412;9.514;2023-05-27T06:05:21;19.70;65.60
12977;DHT22;6553;48.412;9.514;2023-05-27T06:07:48;19.70;65.50
12977;DHT22;6553;48.412;9.514;2023-05-27T06:10:14;19.70;65.40
12977;DHT22;6553;48.412;9.514;2023-05-27T06:12:42;19.70;65.40
12977;DHT22;6553;48.412;9.514;2023-05-27T06:15:08;19.70;65.40
12977;DHT22;6553;48.412;9.514;2023-05-27T06:17:39;19.70;65.40
12977;DHT22;6553;48.412;9.514;2023-05-27T06:20:06;19.70;65.40
12977;DHT22;6553;48.412;9.514;2023-05-27T06:22:33;19.70;65.40
12977;DHT22;6553;48.412;9.514;2023-05-27T06:25:18;19.70;65.40
12977;DHT22;6553;48.412;9.514;2023-05-27T06:28:05;19.70;65.30
12977;DHT22;6553;48.412;9.514;2023-05-27T06:30:36;19.70;65.30
12977;DHT22;6553;48.412;9.514;2023-05-27T06:33:04;19.70;65.20
12977;DHT22;6553;48.412;9.514;2023-05-27T06:35:32;19.70;65.40
12977;DHT22;6553;48.412;9.514;2023-05-27T06:37:58;19.70;65.20
12977;DHT22;6553;48.412;9.514;2023-05-27T06:40:24;19.70;65.20
12977;DHT22;6553;48.412;9.514;2023-05-27T06:42:51;19.70;65.20
12977;DHT22;6553;48.412;9.514;2023-05-27T06:45:36;19.70;65.30
12977;DHT22;6553;48.412;9.514;2023-05-27T06:48:25;19.80;65.30
12977;DHT22;6553;48.412;9.514;2023-05-27T06:50:52;19.70;65.20
12977;DHT22;6553;48.412;9.514;2023-05-27T06:53:17;19.80;65.30
12977;DHT22;6553;48.412;9.514;2023-05-27T06:56:04;19.80;65.30
12977;DHT22;6553;48.412;9.514;2023-05-27T06:58:55;19.80;65.20
12977;DHT22;6553;48.412;9.514;2023-05-27T07:01:21;19.80;65.20
12977;DHT22;6553;48.412;9.514;2023-05-27T07:03:52;19.80;65.20
12977;DHT22;6553;48.412;9.514;2023-05-27T07:06:29;19.80;65.20
12977;DHT22;6553;48.412;9.514;2023-05-27T07:08:56;19.80;65.20
12977;DHT22;6553;48.412;9.514;2023-05-27T07:11:26;19.80;65.20
12977;DHT22;6553;48.412;9.514;2023-05-27T07:13:57;19.80;65.10
12977;DHT22;6553;48.412;9.514;2023-05-27T07:16:28;19.80;65.10
12977;DHT22;6553;48.412;9.514;2023-05-27T07:18:55;19.80;65.10
12977;DHT22;6553;48.412;9.514;2023-05-27T07:21:20;19.80;65.00
12977;DHT22;6553;48.412;9.514;2023-05-27T07:23:47;19.80;64.90
12977;DHT22;6553;48.412;9.514;2023-05-27T07:26:24;19.80;65.00
12977;DHT22;6553;48.412;9.514;2023-05-27T07:28:54;19.80;65.00
12977;DHT22;6553;48.412;9.514;2023-05-27T07:31:29;19.80;65.00
12977;DHT22;6553;48.412;9.514;2023-05-27T07:33:59;19.80;65.20
12977;DHT22;6553;48.412;9.514;2023-05-27T07:36:25;19.90;65.10
12977;DHT22;6553;48.412;9.514;2023-05-27T07:38:51;19.90;65.20
12977;DHT22;6553;48.412;9.514;2023-05-27T07:41:17;19.90;65.30
12977;DHT22;6553;48.412;9.514;2023-05-27T07:43:44;19.90;65.20
12977;DHT22;6553;48.412;9.514;2023-05-27T07:46:09;19.90;65.20
12977;DHT22;6553;48.412;9.514;2023-05-27T07:48:38;19.90;65.20
12977;DHT22;6553;48.412;9.514;2023-05-27T07:51:04;19.90;65.20
12977;DHT22;6553;48.412;9.514;2023-05-27T07:53:31;19.90;65.20
12977;DHT22;6553;48.412;9.514;2023-05-27T07:55:57;19.90;65.60
12977;DHT22;6553;48.412;9.514;2023-05-27T07:58:22;19.90;65.50
12977;DHT22;6553;48.412;9.514;2023-05-27T08:00:58;19.90;65.30
12977;DHT22;6553;48.412;9.514;2023-05-27T08:03:24;19.90;65.30
12977;DHT22;6553;48.412;9.514;2023-05-27T08:05:57;19.90;65.40
12977;DHT22;6553;48.412;9.514;2023-05-27T08:08:48;19.90;65.40
12977;DHT22;6553;48.412;9.514;2023-05-27T08:11:33;19.90;65.20
12977;DHT22;6553;48.412;9.514;2023-05-27T08:14:18;19.90;65.40
12977;DHT22;6553;48.412;9.514;2023-05-27T08:17:18;19.90;65.30
12977;DHT22;6553;48.412;9.514;2023-05-27T08:19:57;20.00;65.40
12977;DHT22;6553;48.412;9.514;2023-05-27T08:22:37;20.00;65.40
12977;DHT22;6553;48.412;9.514;2023-05-27T08:25:26;20.00;65.30
12977;DHT22;6553;48.412;9.514;2023-05-27T08:27:55;20.00;65.00
12977;DHT22;6553;48.412;9.514;2023-05-27T08:30:40;20.00;65.10
12977;DHT22;6553;48.412;9.514;2023-05-27T08:33:10;20.00;65.10
12977;DHT22;6553;48.412;9.514;2023-05-27T08:35:35;20.00;65.20
12977;DHT22;6553;48.412;9.514;2023-05-27T08:38:02;20.00;65.10
12977;DHT22;6553;48.412;9.514;2023-05-27T08:40:33;20.00;65.10
12977;DHT22;6553;48.412;9.514;2023-05-27T08:42:59;20.00;65.10
12977;DHT22;6553;48.412;9.514;2023-05-27T08:45:25;20.00;64.90
12977;DHT22;6553;48.412;9.514;2023-05-27T08:47:53;20.10;65.10
12977;DHT22;6553;48.412;9.514;2023-05-27T08:50:23;20.10;65.10
12977;DHT22;6553;48.412;9.514;2023-05-27T08:52:52;20.10;65.00
12977;DHT22;6553;48.412;9.514;2023-05-27T08:55:21;20.10;65.00
12977;DHT22;6553;48.412;9.514;2023-05-27T08:57:51;20.10;65.20
12977;DHT22;6553;48.412;9.514;2023-05-27T09:00:21;20.10;65.10
12977;DHT22;6553;48.412;9.514;2023-05-27T09:02:49;20.10;65.00
12977;DHT22;6553;48.412;9.514;2023-05-27T09:05:17;20.10;65.00
12977;DHT22;6553;48.412;9.514;2023-05-27T09:07:43;20.10;65.20
12977;DHT22;6553;48.412;9.514;2023-05-27T09:10:09;20.10;65.20
12977;DHT22;6553;48.412;9.514;2023-05-27T09:12:36;20.10;65.30
12977;DHT22;6553;48.412;9.514;2023-05-27T09:15:05;20.10;65.20
12977;DHT22;6553;48.412;9.514;2023-05-27T09:17:31;20.10;65.10
12977;DHT22;6553;48.412;9.514;2023-05-27T09:19:57;20.10;65.20
12977;DHT22;6553;48.412;9.514;2023-05-27T09:22:25;20.10;65.30
12977;DHT22;6553;48.412;9.514;2023-05-27T09:24:53;20.10;65.30
12977;DHT22;6553;48.412;9.514;2023-05-27T09:27:27;20.10;65.40
12977;DHT22;6553;48.412;9.514;2023-05-27T09:29:55;20.10;65.30
12977;DHT22;6553;48.412;9.514;2023-05-27T09:32:30;20.10;65.30
12977;DHT22;6553;48.412;9.514;2023-05-27T09:34:59;20.10;65.40
12977;DHT22;6553;48.412;9.514;2023-05-27T09:37:31;20.10;65.50
12977;DHT22;6553;48.412;9.514;2023-05-27T09:40:08;20.10;65.50
12977;DHT22;6553;48.412;9.514;2023-05-27T09:42:48;20.10;65.50
12977;DHT22;6553;48.412;9.514;2023-05-27T09:45:19;20.10;65.60
12977;DHT22;6553;48.412;9.514;2023-05-27T09:47:50;20.10;65.50
12977;DHT22;6553;48.412;9.514;2023-05-27T09:50:19;20.10;66.00
12977;DHT22;6553;48.412;9.514;2023-05-27T09:52:47;20.10;65.80
12977;DHT22;6553;48.412;9.514;2023-05-27T09:55:15;20.10;65.80
12977;DHT22;6553;48.412;9.514;2023-05-27T09:57:42;20.10;66.20
12977;DHT22;6553;48.412;9.514;2023-05-27T10:00:10;20.10;65.80
12977;DHT22;6553;48.412;9.514;2023-05-27T10:02:47;20.10;65.90
12977;DHT22;6553;48.412;9.514;2023-05-27T10:05:15;20.10;65.80
12977;DHT22;6553;48.412;9.514;2023-05-27T10:07:43;20.20;65.90
12977;DHT22;6553;48.412;9.514;2023-05-27T10:10:14;20.10;65.80
12977;DHT22;6553;48.412;9.514;2023-05-27T10:12:44;20.20;66.00
12977;DHT22;6553;48.412;9.514;2023-05-27T10:15:29;20.10;65.80
12977;DHT22;6553;48.412;9.514;2023-05-27T10:18:04;20.20;65.90
12977;DHT22;6553;48.412;9.514;2023-05-27T10:20:37;20.20;66.00
12977;DHT22;6553;48.412;9.514;2023-05-27T10:23:27;20.10;65.60
12977;DHT22;6553;48.412;9.514;2023-05-27T10:25:57;20.10;65.80
12977;DHT22;6553;48.412;9.514;2023-05-27T10:28:37;20.20;66.10
12977;DHT22;6553;48.412;9.514;2023-05-27T10:31:07;20.20;66.00
12977;DHT22;6553;48.412;9.514;2023-05-27T10:33:49;20.20;66.30
12977;DHT22;6553;48.412;9.514;2023-05-27T10:36:27;20.20;66.20
12977;DHT22;6553;48.412;9.514;2023-05-27T10:39:13;20.20;66.30
12977;DHT22;6553;48.412;9.514;2023-05-27T10:41:50;20.20;66.40
12977;DHT22;6553;48.412;9.514;2023-05-27T10:44:40;20.20;66.20
12977;DHT22;6553;48.412;9.514;2023-05-27T10:47:11;20.20;66.40
12977;DHT22;6553;48.412;9.514;2023-05-27T10:49:46;20.20;66.30
12977;DHT22;6553;48.412;9.514;2023-05-27T10:52:15;20.20;66.20
12977;DHT22;6553;48.412;9.514;2023-05-27T10:54:46;20.20;66.10
12977;DHT22;6553;48.412;9.514;2023-05-27T10:57:13;20.20;66.00
12977;DHT22;6553;48.412;9.514;2023-05-27T11:02:16;20.20;66.20
12977;DHT22;6553;48.412;9.514;2023-05-27T11:04:42;20.20;66.20
12977;DHT22;6553;48.412;9.514;2023-05-27T11:07:08;20.20;66.30
12977;DHT22;6553;48.412;9.514;2023-05-27T11:09:51;20.20;66.10
12977;DHT22;6553;48.412;9.514;2023-05-27T11:12:23;20.20;66.20
12977;DHT22;6553;48.412;9.514;2023-05-27T11:14:50;20.20;66.20
12977;DHT22;6553;48.412;9.514;2023-05-27T11:17:18;20.20;66.00
12977;DHT22;6553;48.412;9.514;2023-05-27T11:19:44;20.20;66.40
12977;DHT22;6553;48.412;9.514;2023-05-27T11:22:12;20.20;66.40
12977;DHT22;6553;48.412;9.514;2023-05-27T11:24:39;20.20;66.00
12977;DHT22;6553;48.412;9.514;2023-05-27T11:27:10;20.20;66.10
12977;DHT22;6553;48.412;9.514;2023-05-27T11:29:37;20.20;66.00
12977;DHT22;6553;48.412;9.514;2023-05-27T11:32:05;20.20;66.30
12977;DHT22;6553;48.412;9.514;2023-05-27T11:34:34;20.20;66.00
12977;DHT22;6553;48.412;9.514;2023-05-27T11:37:02;20.20;66.30
12977;DHT22;6553;48.412;9.514;2023-05-27T11:39:32;20.20;66.20
12977;DHT22;6553;48.412;9.514;2023-05-27T11:41:58;20.20;66.00
12977;DHT22;6553;48.412;9.514;2023-05-27T11:44:25;20.20;66.20
12977;DHT22;6553;48.412;9.514;2023-05-27T11:46:52;20.20;66.00
12977;DHT22;6553;48.412;9.514;2023-05-27T11:49:25;20.20;65.90
12977;DHT22;6553;48.412;9.514;2023-05-27T11:51:50;20.20;65.90
12977;DHT22;6553;48.412;9.514;2023-05-27T11:54:22;20.20;66.00
12977;DHT22;6553;48.412;9.514;2023-05-27T11:56:48;20.20;66.00
12977;DHT22;6553;48.412;9.514;2023-05-27T11:59:15;20.20;66.00
12977;DHT22;6553;48.412;9.514;2023-05-27T12:01:42;20.20;65.80
12977;DHT22;6553;48.412;9.514;2023-05-27T12:04:08;20.20;66.10
12977;DHT22;6553;48.412;9.514;2023-05-27T12:06:35;20.20;66.10
12977;DHT22;6553;48.412;9.514;2023-05-27T12:09:03;20.20;66.10
12977;DHT22;6553;48.412;9.514;2023-05-27T12:11:31;20.20;66.00
12977;DHT22;6553;48.412;9.514;2023-05-27T12:13:57;20.20;66.10
12977;DHT22;6553;48.412;9.514;2023-05-27T12:16:23;20.20;66.00
12977;DHT22;6553;48.412;9.514;2023-05-27T12:18:50;20.30;66.00
12977;DHT22;6553;48.412;9.514;2023-05-27T12:21:16;20.20;66.00
12977;DHT22;6553;48.412;9.514;2023-05-27T12:23:42;20.20;66.00
12977;DHT22;6553;48.412;9.514;2023-05-27T12:26:09;20.20;66.00
12977;DHT22;6553;48.412;9.514;2023-05-27T12:28:38;20.20;66.00
12977;DHT22;6553;48.412;9.514;2023-05-27T12:31:04;20.20;66.00
12977;DHT22;6553;48.412;9.514;2023-05-27T12:33:30;20.20;65.90
12977;DHT22;6553;48.412;9.514;2023-05-27T12:35:57;20.20;65.70
12977;DHT22;6553;48.412;9.514;2023-05-27T12:38:23;20.20;65.70
12977;DHT22;6553;48.412;9.514;2023-05-27T12:40:49;20.30;65.90
12977;DHT22;6553;48.412;9.514;2023-05-27T12:43:16;20.20;65.80
12977;DHT22;6553;48.412;9.514;2023-05-27T12:45:45;20.20;65.60
12977;DHT22;6553;48.412;9.514;2023-05-27T12:48:12;20.30;65.70
12977;DHT22;6553;48.412;9.514;2023-05-27T12:50:38;20.30;65.50
12977;DHT22;6553;48.412;9.514;2023-05-27T12:53:04;20.20;65.40
12977;DHT22;6553;48.412;9.514;2023-05-27T12:55:30;20.30;65.90
12977;DHT22;6553;48.412;9.514;2023-05-27T12:57:56;20.30;65.80
12977;DHT22;6553;48.412;9.514;2023-05-27T13:00:22;20.20;65.70
12977;DHT22;6553;48.412;9.514;2023-05-27T13:02:49;20.30;65.80
12977;DHT22;6553;48.412;9.514;2023-05-27T13:05:16;20.20;65.70
12977;DHT22;6553;48.412;9.514;2023-05-27T13:08:02;20.30;65.90
12977;DHT22;6553;48.412;9.514;2023-05-27T13:10:32;20.30;65.40
12977;DHT22;6553;48.412;9.514;2023-05-27T13:12:59;20.30;65.50
12977;DHT22;6553;48.412;9.514;2023-05-27T13:15:25;20.20;65.50
12977;DHT22;6553;48.412;9.514;2023-05-27T13:17:52;20.20;65.50
12977;DHT22;6553;48.412;9.514;2023-05-27T13:20:22;20.20;65.50
12977;DHT22;6553;48.412;9.514;2023-05-27T13:22:49;20.30;65.20
12977;DHT22;6553;48.412;9.514;2023-05-27T13:25:16;20.30;65.40
12977;DHT22;6553;48.412;9.514;2023-05-27T13:27:42;20.30;65.20
12977;DHT22;6553;48.412;9.514;2023-05-27T13:30:13;20.30;65.30
12977;DHT22;6553;48.412;9.514;2023-05-27T13:32:41;20.30;65.40
12977;DHT22;6553;48.412;9.514;2023-05-27T13:35:08;20.30;65.30
12977;DHT22;6553;48.412;9.514;2023-05-27T13:37:37;20.30;65.40
12977;DHT22;6553;48.412;9.514;2023-05-27T13:40:04;20.30;65.40
12977;DHT22;6553;48.412;9.514;2023-05-27T13:42:31;20.30;65.40
12977;DHT22;6553;48.412;9.514;2023-05-27T13:44:58;20.30;65.50
12977;DHT22;6553;48.412;9.514;2023-05-27T13:47:23;20.30;65.30
12977;DHT22;6553;48.412;9.514;2023-05-27T13:49:49;20.30;65.30
12977;DHT22;6553;48.412;9.514;2023-05-27T13:52:15;20.30;65.20
12977;DHT22;6553;48.412;9.514;2023-05-27T13:54:41;20.30;65.50
12977;DHT22;6553;48.412;9.514;2023-05-27T13:57:07;20.30;65.40
12977;DHT22;6553;48.412;9.514;2023-05-27T13:59:34;20.30;65.20
12977;DHT22;6553;48.412;9.514;2023-05-27T14:02:00;20.30;65.20
12977;DHT22;6553;48.412;9.514;2023-05-27T14:04:31;20.30;65.20
12977;DHT22;6553;48.412;9.514;2023-05-27T14:06:58;20.30;65.20
12977;DHT22;6553;48.412;9.514;2023-05-27T14:09:23;20.30;64.90
12977;DHT22;6553;48.412;9.514;2023-05-27T14:11:49;20.30;65.20
12977;DHT22;6553;48.412;9.514;2023-05-27T14:14:15;20.30;64.80
12977;DHT22;6553;48.412;9.514;2023-05-27T14:16:41;20.30;64.80
12977;DHT22;6553;48.412;9.514;2023-05-27T14:19:07;20.30;64.90
12977;DHT22;6553;48.412;9.514;2023-05-27T14:21:32;20.30;65.10
12977;DHT22;6553;48.412;9.514;2023-05-27T14:23:58;20.30;65.10
12977;DHT22;6553;48.412;9.514;2023-05-27T14:26:25;20.30;64.50
12977;DHT22;6553;48.412;9.514;2023-05-27T14:28:52;20.30;64.90
12977;DHT22;6553;48.412;9.514;2023-05-27T14:31:17;20.30;64.80
12977;DHT22;6553;48.412;9.514;2023-05-27T14:33:43;20.30;65.10
12977;DHT22;6553;48.412;9.514;2023-05-27T14:36:10;20.30;65.10
12977;DHT22;6553;48.412;9.514;2023-05-27T14:38:36;20.30;65.00
12977;DHT22;6553;48.412;9.514;2023-05-27T14:41:02;20.30;65.00
12977;DHT22;6553;48.412;9.514;2023-05-27T14:43:27;20.30;64.80
12977;DHT22;6553;48.412;9.514;2023-05-27T14:45:53;20.30;64.70
12977;DHT22;6553;48.412;9.514;2023-05-27T14:48:19;20.30;64.70
12977;DHT22;6553;48.412;9.514;2023-05-27T14:50:45;20.30;64.60
12977;DHT22;6553;48.412;9.514;2023-05-27T14:53:11;20.30;64.60
12977;DHT22;6553;48.412;9.514;2023-05-27T14:55:36;20.30;64.50
12977;DHT22;6553;48.412;9.514;2023-05-27T14:58:02;20.30;64.40
12977;DHT22;6553;48.412;9.514;2023-05-27T15:00:31;20.30;64.80
12977;DHT22;6553;48.412;9.514;2023-05-27T15:02:56;20.30;64.60
12977;DHT22;6553;48.412;9.514;2023-05-27T15:05:22;20.30;64.70
12977;DHT22;6553;48.412;9.514;2023-05-27T15:07:48;20.30;64.40
12977;DHT22;6553;48.412;9.514;2023-05-27T15:10:14;20.30;63.80
12977;DHT22;6553;48.412;9.514;2023-05-27T15:12:42;20.30;63.80
12977;DHT22;6553;48.412;9.514;2023-05-27T15:15:18;20.30;64.00
12977;DHT22;6553;48.412;9.514;2023-05-27T15:17:46;20.30;63.70
12977;DHT22;6553;48.412;9.514;2023-05-27T15:20:14;20.30;63.60
12977;DHT22;6553;48.412;9.514;2023-05-27T15:22:42;20.30;63.80
12977;DHT22;6553;48.412;9.514;2023-05-27T15:25:08;20.40;63.60
12977;DHT22;6553;48.412;9.514;2023-05-27T15:27:34;20.30;63.70
12977;DHT22;6553;48.412;9.514;2023-05-27T15:30:02;20.30;63.70
12977;DHT22;6553;48.412;9.514;2023-05-27T15:32:31;20.30;63.90
12977;DHT22;6553;48.412;9.514;2023-05-27T15:34:57;20.30;64.00
12977;DHT22;6553;48.412;9.514;2023-05-27T15:37:24;20.30;63.60
12977;DHT22;6553;48.412;9.514;2023-05-27T15:39:50;20.30;64.10
12977;DHT22;6553;48.412;9.514;2023-05-27T15:42:16;20.30;64.00
12977;DHT22;6553;48.412;9.514;2023-05-27T15:44:42;20.30;64.00
12977;DHT22;6553;48.412;9.514;2023-05-27T15:47:08;20.40;63.80
12977;DHT22;6553;48.412;9.514;2023-05-27T15:49:35;20.30;63.90
12977;DHT22;6553;48.412;9.514;2023-05-27T15:52:00;20.30;63.80
12977;DHT22;6553;48.412;9.514;2023-05-27T15:54:26;20.30;63.10
12977;DHT22;6553;48.412;9.514;2023-05-27T15:56:54;20.30;63.00
12977;DHT22;6553;48.412;9.514;2023-05-27T15:59:20;20.30;63.40
12977;DHT22;6553;48.412;9.514;2023-05-27T16:01:46;20.30;63.00